Time;durP1;ratioP1;P1;durP2;ratioP2;P2;SDS_P1;SDS_P2;PMS_P1;PMS_P2;Temp;Humidity;BMP_temperature;BMP_pressure;BME280_temperature;BME280_humidity;BME280_pressure;Samples;Min_cycle;Max_cycle;Signal;HPM_P1;HPM_P2
2021/12/16 00:03:09;;;;;;;41.90;22.52;;;;;;;2.00;74.20;100377.65;1749127;82;20914;-42
2021/12/16 00:07:47;;;;;;;40.75;23.02;;;;;;;2.02;74.38;100389.68;1749010;82;21088;-41
2021/12/16 00:10:25;;;;;;;41.77;22.73;;;;;;;2.03;74.45;100393.93;1747080;82;20945;-41
2021/12/16 00:31:58;;;;;;;50.05;24.15;;;;;;;1.84;74.88;100370.25;1749085;82;21143;-41
2021/12/16 00:34:26;;;;;;;43.05;23.65;;;;;;;1.89;74.93;100373.46;1748581;82;21041;-41
2021/12/16 00:36:53;;;;;;;47.00;23.83;;;;;;;1.88;74.92;100373.20;1748854;82;21006;-41
2021/12/16 00:39:25;;;;;;;44.40;22.40;;;;;;;1.82;75.15;100375.63;1748927;82;21037;-41
2021/12/16 00:41:58;;;;;;;44.35;22.70;;;;;;;1.80;75.23;100363.87;1748747;82;21101;-41
2021/12/16 00:49:43;;;;;;;39.10;21.23;;;;;;;1.83;75.30;100359.33;1748720;82;21041;-41
2021/12/16 00:55:13;;;;;;;42.30;21.90;;;;;;;1.83;75.38;100362.00;1749328;82;21013;-41
2021/12/16 00:57:33;;;;;;;40.03;21.87;;;;;;;1.81;75.55;100353.98;1747659;82;21520;-41
2021/12/16 01:00:03;;;;;;;41.10;22.05;;;;;;;1.86;75.35;100353.95;1742284;82;21064;-41
2021/12/16 01:46:32;;;;;;;42.48;21.73;;;;;;;1.80;75.36;100317.08;1759581;81;21025;-41
2021/12/16 01:51:26;;;;;;;43.98;23.20;;;;;;;1.90;75.41;100317.02;1759485;81;21180;-41
2021/12/16 01:57:11;;;;;;;47.35;24.35;;;;;;;1.90;75.46;100313.00;1759499;81;21021;-41
2021/12/16 01:59:18;;;;;;;43.17;22.62;;;;;;;1.91;75.43;100311.94;1745895;80;20966;-41
2021/12/16 02:01:42;;;;;;;46.88;23.95;;;;;;;1.96;75.17;100309.22;1764532;81;21072;-41
2021/12/16 02:04:21;;;;;;;45.73;23.35;;;;;;;1.92;75.12;100295.36;1765035;81;21777;-41
2021/12/16 02:09:34;;;;;;;47.27;24.12;;;;;;;1.92;75.17;100300.16;1765400;81;20950;-41
2021/12/16 02:29:12;;;;;;;43.68;21.93;;;;;;;2.11;74.89;100286.37;1765365;80;21025;-41
2021/12/16 02:36:13;;;;;;;46.30;23.75;;;;;;;2.15;74.30;100278.58;1765329;81;21519;-41
2021/12/16 02:38:33;;;;;;;45.50;23.18;;;;;;;2.15;74.48;100278.04;1789639;79;20977;-41
2021/12/16 02:41:01;;;;;;;39.55;18.75;;;;;;;2.11;74.32;100281.02;1797042;79;21010;-41
2021/12/16 02:44:07;;;;;;;42.10;22.15;;;;;;;2.05;74.45;100278.13;1796825;79;21792;-41
2021/12/16 02:48:44;;;;;;;42.27;23.07;;;;;;;2.05;74.33;100263.95;1796699;79;21064;-41
2021/12/16 02:51:20;;;;;;;44.50;23.15;;;;;;;2.06;74.49;100262.34;1797215;79;20994;-41
2021/12/16 02:53:51;;;;;;;43.50;23.52;;;;;;;2.04;74.66;100259.14;1796771;79;21030;-41
2021/12/16 02:56:17;;;;;;;45.88;23.85;;;;;;;2.03;74.75;100262.88;1797268;79;21084;-41
2021/12/16 02:58:48;;;;;;;42.70;22.67;;;;;;;2.03;74.88;100262.11;1796976;79;21523;-41
2021/12/16 03:01:28;;;;;;;46.55;24.07;;;;;;;2.05;74.74;100271.44;1807956;79;20997;-41
2021/12/16 03:03:56;;;;;;;48.78;24.67;;;;;;;2.08;74.62;100277.55;1807782;79;21586;-41
2021/12/16 03:06:23;;;;;;;43.83;23.98;;;;;;;2.12;74.83;100275.94;1807797;78;21048;-41
2021/12/16 03:08:50;;;;;;;47.73;24.72;;;;;;;2.13;74.79;100274.06;1807905;79;21161;-41
2021/12/16 03:11:36;;;;;;;50.12;24.25;;;;;;;2.09;74.73;100264.44;1807668;79;20998;-41
2021/12/16 03:14:18;;;;;;;44.77;23.95;;;;;;;2.06;74.79;100269.03;1805827;79;21558;-41
2021/12/16 03:17:23;;;;;;;48.95;23.42;;;;;;;2.09;74.75;100271.13;1804051;79;20968;-41
2021/12/16 03:19:13;;;;;;;47.65;23.00;;;;;;;2.13;74.58;100274.83;1781215;79;21005;-41
2021/12/16 03:21:38;;;;;;;52.33;25.17;;;;;;;2.16;74.68;100268.94;1806048;79;21050;-41
2021/12/16 03:37:24;;;;;;;48.02;24.37;;;;;;;2.01;75.06;100263.72;1807742;79;21287;-41
2021/12/16 03:39:54;;;;;;;38.05;18.27;;;;;;;1.97;74.98;100260.02;1776660;79;20921;-41
2021/12/16 03:42:37;;;;;;;44.77;22.98;;;;;;;1.96;75.10;100260.29;1807850;79;21009;-41
2021/12/16 03:46:25;;;;;;;46.18;23.92;;;;;;;1.90;75.06;100252.04;1808035;79;21001;-41
2021/12/16 03:47:47;;;;;;;46.30;23.50;;;;;;;1.83;75.10;100255.05;1765857;81;21618;-41
2021/12/16 03:50:19;;;;;;;44.77;22.90;;;;;;;1.83;75.35;100249.70;1759718;81;21019;-41
2021/12/16 03:52:47;;;;;;;49.60;23.98;;;;;;;1.81;75.45;100245.70;1759787;81;21009;-41
2021/12/16 03:55:14;;;;;;;50.08;25.57;;;;;;;1.77;75.60;100227.30;1739326;82;21104;-41
2021/12/16 03:57:41;;;;;;;49.42;24.00;;;;;;;1.72;75.74;100227.59;1750725;82;21020;-41
2021/12/16 04:00:18;;;;;;;45.70;24.50;;;;;;;1.66;75.85;100222.02;1748266;81;21069;-41
2021/12/16 04:02:47;;;;;;;50.63;25.48;;;;;;;1.70;75.90;100228.94;1745825;81;21479;-41
2021/12/16 04:05:17;;;;;;;48.35;25.05;;;;;;;1.74;75.96;100230.00;1745307;82;21033;-41
2021/12/16 04:07:44;;;;;;;50.20;25.48;;;;;;;1.77;76.18;100229.97;1716108;82;21031;-41
2021/12/16 04:10:35;;;;;;;52.10;23.40;;;;;;;1.76;76.07;100222.48;1744746;82;21530;-41
2021/12/16 04:13:05;;;;;;;49.35;23.98;;;;;;;1.69;76.06;100230.04;1745531;82;21151;-41
2021/12/16 04:15:32;;;;;;;46.85;23.90;;;;;;;1.67;76.18;100220.16;1745541;82;21004;-41
2021/12/16 04:17:59;;;;;;;45.80;24.43;;;;;;;1.71;76.19;100229.20;1754064;81;21115;-41
2021/12/16 04:20:26;;;;;;;45.43;24.40;;;;;;;1.70;76.22;100218.25;1754083;81;20964;-41
2021/12/16 04:22:54;;;;;;;45.45;23.90;;;;;;;1.67;76.12;100217.48;1753851;80;21011;-41
2021/12/16 04:25:30;;;;;;;49.42;24.37;;;;;;;1.62;76.20;100210.84;1737447;82;21852;-41
2021/12/16 04:28:00;;;;;;;45.65;23.57;;;;;;;1.58;76.31;100210.61;1737509;82;20969;-41
2021/12/16 04:30:28;;;;;;;34.20;17.45;;;;;;;1.62;76.34;100206.83;1745808;81;21052;-41
2021/12/16 04:32:57;;;;;;;47.03;23.55;;;;;;;1.65;76.26;100203.59;1716817;82;20946;-41
2021/12/16 04:35:26;;;;;;;45.80;24.15;;;;;;;1.61;76.26;100201.22;1745914;82;21092;-41
2021/12/16 04:37:54;;;;;;;44.13;23.50;;;;;;;1.55;76.55;100195.68;1698431;83;21135;-41
2021/12/16 04:40:22;;;;;;;43.40;22.95;;;;;;;1.51;76.39;100192.74;1715790;83;21047;-41
2021/12/16 04:42:52;;;;;;;42.85;22.20;;;;;;;1.55;76.29;100193.00;1715823;83;20985;-41
2021/12/16 04:45:21;;;;;;;45.03;23.60;;;;;;;1.57;76.13;100188.16;1715889;83;21660;-41
2021/12/16 04:47:49;;;;;;;48.35;24.02;;;;;;;1.51;76.18;100188.73;1687461;83;21052;-41
2021/12/16 04:50:16;;;;;;;45.98;25.15;;;;;;;1.46;76.28;100186.64;1715850;83;21139;-41
2021/12/16 04:52:45;;;;;;;45.58;24.77;;;;;;;1.39;76.34;100187.51;1716014;83;21016;-41
2021/12/16 04:55:15;;;;;;;47.73;25.35;;;;;;;1.36;76.38;100182.70;1716022;83;21583;-41
2021/12/16 04:57:42;;;;;;;52.55;28.10;;;;;;;1.35;76.34;100176.59;1716105;83;21025;-41
2021/12/16 05:00:13;;;;;;;54.75;29.00;;;;;;;1.36;76.34;100170.68;1711424;83;21104;-42
2021/12/16 05:02:41;;;;;;;57.62;29.42;;;;;;;1.30;76.49;100169.41;1702709;84;21110;-41
2021/12/16 05:05:11;;;;;;;56.83;29.87;;;;;;;1.24;76.68;100178.52;1702895;84;20973;-41
2021/12/16 05:07:42;;;;;;;51.05;26.42;;;;;;;1.23;76.71;100186.80;1702959;84;21224;-41
2021/12/16 05:10:15;;;;;;;46.33;26.30;;;;;;;1.23;76.76;100196.95;1699641;84;21049;-41
2021/12/16 05:12:56;;;;;;;45.00;24.47;;;;;;;1.29;76.66;100199.86;1703023;84;21037;-41
2021/12/16 05:15:29;;;;;;;38.13;19.80;;;;;;;1.25;76.67;100208.17;1702895;84;21138;-41
2021/12/16 05:17:56;;;;;;;49.63;26.20;;;;;;;1.25;76.67;100208.17;1702539;84;22205;-41
2021/12/16 05:20:27;;;;;;;46.45;25.02;;;;;;;1.20;76.97;100207.41;1702871;84;21057;-41
2021/12/16 05:28:28;;;;;;;46.73;24.18;;;;;;;1.18;77.31;100206.33;1702696;83;21666;-41
2021/12/16 05:30:56;;;;;;;46.70;23.67;;;;;;;1.14;77.53;100207.97;1702712;83;21097;-41
2021/12/16 05:33:24;;;;;;;43.25;22.30;;;;;;;1.12;77.47;100194.61;1702882;84;21106;-41
2021/12/16 05:35:52;;;;;;;40.83;22.15;;;;;;;1.13;77.42;100205.56;1702691;83;20937;-41
2021/12/16 05:38:20;;;;;;;45.60;22.37;;;;;;;1.16;77.30;100210.37;1725922;82;21089;-41
2021/12/16 05:40:46;;;;;;;43.80;23.77;;;;;;;1.19;77.34;100207.94;1732033;82;21138;-41
2021/12/16 05:43:17;;;;;;;43.83;23.15;;;;;;;1.18;77.35;100198.33;1731031;82;21060;-41
2021/12/16 05:45:46;;;;;;;44.95;22.67;;;;;;;1.18;77.36;100203.66;1732211;82;21021;-41
2021/12/16 05:48:16;;;;;;;41.73;22.22;;;;;;;1.16;77.32;100199.13;1732044;82;21649;-41
2021/12/16 05:50:49;;;;;;;46.68;23.25;;;;;;;1.26;77.22;100208.41;1753335;81;21029;-41
2021/12/16 05:53:16;;;;;;;41.30;22.17;;;;;;;1.30;77.09;100198.79;1742482;82;21809;-42
2021/12/16 05:55:44;;;;;;;43.28;23.83;;;;;;;1.30;77.05;100193.98;1742471;82;21012;-41
2021/12/16 05:58:21;;;;;;;41.77;21.52;;;;;;;1.29;76.90;100189.17;1741466;82;21033;-41
2021/12/16 06:00:54;;;;;;;41.30;21.35;;;;;;;1.31;76.91;100188.88;1745285;81;21034;-41
2021/12/16 06:03:22;;;;;;;39.40;21.45;;;;;;;1.39;76.73;100191.52;1727266;82;21025;-41
2021/12/16 06:05:50;;;;;;;41.53;22.27;;;;;;;1.42;76.68;100189.61;1796933;79;21062;-41
2021/12/16 06:08:18;;;;;;;40.65;21.15;;;;;;;1.42;76.68;100185.06;1796556;79;21037;-41
2021/12/16 06:11:14;;;;;;;39.73;20.40;;;;;;;1.39;76.60;100192.84;1796851;79;21522;-41
2021/12/16 06:22:23;;;;;;;40.40;20.45;;;;;;;1.47;76.59;100177.55;1835357;78;23338;-39
2021/12/16 06:27:00;;;;;;;40.40;20.85;;;;;;;1.37;76.65;100170.41;1805566;79;21067;-39
2021/12/16 06:29:17;;;;;;;38.10;21.50;;;;;;;1.40;76.68;100168.53;1803182;79;20904;-39
2021/12/16 06:31:44;;;;;;;44.38;21.48;;;;;;;1.41;76.62;100162.63;1805652;79;21058;-40
2021/12/16 06:34:10;;;;;;;40.83;21.60;;;;;;;1.36;76.88;100159.99;1776478;79;21836;-40
2021/12/16 06:36:37;;;;;;;35.85;19.15;;;;;;;1.33;76.95;100158.69;1800810;79;20951;-40
2021/12/16 06:39:04;;;;;;;36.25;20.17;;;;;;;1.31;76.93;100148.81;1752757;81;20878;-39
2021/12/16 06:41:36;;;;;;;27.77;15.68;;;;;;;1.35;76.91;100149.08;1752513;81;20989;-39
2021/12/16 06:44:24;;;;;;;35.75;18.52;;;;;;;1.36;76.88;100151.98;1752168;81;21455;-39
2021/12/16 06:46:46;;;;;;;36.73;18.75;;;;;;;1.29;77.06;100151.78;1750553;81;21194;-39
2021/12/16 06:49:16;;;;;;;32.80;18.02;;;;;;;1.26;77.22;100149.64;1752584;81;21029;-39
2021/12/16 06:51:56;;;;;;;32.10;17.00;;;;;;;1.27;77.26;100151.25;1752817;81;20933;-39
2021/12/16 06:54:30;;;;;;;33.00;17.00;;;;;;;1.31;77.28;100152.28;1752692;81;20906;-39
2021/12/16 06:57:19;;;;;;;34.35;18.17;;;;;;;1.40;77.21;100151.70;1752062;81;20949;-39
2021/12/16 06:59:40;;;;;;;31.80;17.10;;;;;;;1.37;77.19;100139.69;1753034;81;21543;-39
2021/12/16 07:02:12;;;;;;;32.80;17.65;;;;;;;1.34;77.33;100140.26;1752604;81;21380;-40
2021/12/16 07:04:36;;;;;;;29.57;16.87;;;;;;;1.33;77.40;100144.00;1752336;81;20898;-39
2021/12/16 07:07:06;;;;;;;33.90;17.45;;;;;;;1.38;77.46;100139.16;1752537;81;21577;-39
2021/12/16 07:09:34;;;;;;;35.52;17.80;;;;;;;1.42;77.34;100140.19;1731156;81;20984;-40
2021/12/16 07:12:01;;;;;;;34.03;18.57;;;;;;;1.42;77.59;100142.32;1752640;81;21210;-39
2021/12/16 07:14:39;;;;;;;36.90;18.42;;;;;;;1.43;77.65;100141.25;1749194;81;20972;-40
2021/12/16 07:17:11;;;;;;;35.20;18.17;;;;;;;1.48;77.52;100133.73;1742261;82;21210;-39
2021/12/16 07:19:39;;;;;;;36.33;19.57;;;;;;;1.54;77.32;100136.63;1742755;82;21099;-40
2021/12/16 07:22:07;;;;;;;35.68;18.95;;;;;;;1.55;77.29;100120.85;1742805;82;21078;-39
2021/12/16 07:24:33;;;;;;;41.35;20.10;;;;;;;1.52;77.38;100120.06;1742834;82;21181;-39
2021/12/16 07:27:03;;;;;;;38.63;19.95;;;;;;;1.47;77.48;100118.77;1742144;82;21748;-39
2021/12/16 07:29:29;;;;;;;32.33;18.42;;;;;;;1.46;77.56;100113.96;1746587;80;20995;-39
2021/12/16 07:31:56;;;;;;;33.13;18.98;;;;;;;1.48;77.61;100111.02;1770468;81;20968;-39
2021/12/16 07:34:23;;;;;;;36.28;20.00;;;;;;;1.47;77.79;100118.77;1770571;81;21023;-39
2021/12/16 07:36:49;;;;;;;36.73;19.52;;;;;;;1.44;77.85;100100.64;1770403;81;21762;-39
2021/12/16 07:39:18;;;;;;;34.50;18.73;;;;;;;1.45;77.99;100110.25;1770403;81;20932;-39
2021/12/16 07:41:46;;;;;;;34.63;19.63;;;;;;;1.51;77.97;100110.45;1770657;81;20952;-39
2021/12/16 07:44:14;;;;;;;40.43;19.92;;;;;;;1.57;77.84;100114.67;1770321;81;21537;-40
2021/12/16 07:46:52;;;;;;;32.20;18.73;;;;;;;1.54;77.88;100117.38;1770660;81;21067;-40
2021/12/16 07:49:26;;;;;;;33.60;18.65;;;;;;;1.50;78.02;100106.97;1770469;81;21132;-39
2021/12/16 07:51:53;;;;;;;31.07;18.10;;;;;;;1.53;78.16;100102.95;1770387;81;21055;-40
2021/12/16 07:54:21;;;;;;;33.55;18.82;;;;;;;1.59;78.10;100102.64;1770826;81;21082;-40
2021/12/16 07:56:49;;;;;;;37.55;19.48;;;;;;;1.62;78.12;100106.61;1770512;81;21577;-39
2021/12/16 07:59:15;;;;;;;36.15;19.65;;;;;;;1.63;78.19;100106.88;1770620;81;21348;-40
2021/12/16 08:01:43;;;;;;;30.95;18.35;;;;;;;1.65;78.18;100106.84;1770518;81;21156;-39
2021/12/16 08:04:17;;;;;;;33.45;19.35;;;;;;;1.69;78.20;100105.19;1770825;81;21264;-40
2021/12/16 08:06:39;;;;;;;34.48;19.40;;;;;;;1.74;78.03;100099.02;1769615;81;20952;-39
2021/12/16 08:09:08;;;;;;;35.75;19.02;;;;;;;1.78;77.99;100102.72;1770495;81;21087;-40
2021/12/16 08:11:38;;;;;;;35.58;20.10;;;;;;;1.75;78.09;100100.59;1770407;81;21853;-40
2021/12/16 08:14:05;;;;;;;31.20;19.02;;;;;;;1.73;78.23;100094.75;1769675;80;21593;-40
2021/12/16 08:16:32;;;;;;;34.80;18.65;;;;;;;1.75;78.37;100089.90;1759626;81;21004;-39
2021/12/16 08:19:00;;;;;;;35.58;19.27;;;;;;;1.82;78.32;100094.38;1759575;81;20920;-39
2021/12/16 08:21:29;;;;;;;38.00;19.67;;;;;;;1.84;78.14;100088.77;1759623;81;21027;-39
2021/12/16 08:23:58;;;;;;;35.10;19.52;;;;;;;1.83;78.18;100089.84;1759750;81;21553;-40
2021/12/16 08:26:25;;;;;;;32.78;18.20;;;;;;;1.79;78.42;100080.26;1759602;81;21922;-39
2021/12/16 08:28:52;;;;;;;32.05;17.32;;;;;;;1.80;78.41;100081.03;1759599;81;21036;-40
2021/12/16 08:31:19;;;;;;;30.92;17.23;;;;;;;1.82;78.44;100078.34;1759618;81;21514;-39
2021/12/16 08:33:48;;;;;;;32.95;19.45;;;;;;;1.84;78.53;100080.17;1759790;81;20968;-39
2021/12/16 08:36:15;;;;;;;34.48;18.62;;;;;;;1.82;78.50;100081.02;1759481;81;21028;-39
2021/12/16 08:38:43;;;;;;;35.03;19.23;;;;;;;1.81;78.68;100082.09;1771673;81;21120;-40
2021/12/16 08:41:14;;;;;;;36.53;19.75;;;;;;;1.80;78.67;100080.48;1766489;79;21029;-40
2021/12/16 08:43:41;;;;;;;34.85;19.62;;;;;;;1.84;78.56;100063.37;1772377;80;21039;-40
2021/12/16 08:46:12;;;;;;;34.98;19.60;;;;;;;1.83;78.59;100062.56;1772297;79;21833;-40
2021/12/16 08:48:41;;;;;;;34.92;19.40;;;;;;;1.80;78.68;100057.77;1772383;81;21005;-40
2021/12/16 08:51:08;;;;;;;34.67;19.87;;;;;;;1.78;78.92;100059.14;1772176;80;21134;-39
2021/12/16 08:53:35;;;;;;;30.60;18.10;;;;;;;1.81;78.87;100051.34;1772165;81;21014;-40
2021/12/16 08:56:04;;;;;;;33.30;18.90;;;;;;;1.86;78.96;100045.14;1772432;79;21033;-39
2021/12/16 08:58:31;;;;;;;32.93;19.15;;;;;;;1.88;79.04;100039.78;1772488;79;20925;-39
2021/12/16 09:01:03;;;;;;;32.80;18.37;;;;;;;1.87;79.14;100039.52;1772330;81;21089;-39
2021/12/16 09:03:30;;;;;;;33.83;19.75;;;;;;;1.90;79.23;100031.45;1771586;80;21982;-39
2021/12/16 09:05:57;;;;;;;35.65;20.80;;;;;;;1.96;79.06;100028.45;1772398;79;21873;-39
2021/12/16 09:08:24;;;;;;;32.40;19.12;;;;;;;2.02;79.04;100027.84;1772304;81;20989;-39
2021/12/16 09:10:52;;;;;;;31.10;17.15;;;;;;;2.04;79.12;100030.48;1772186;81;21008;-40
2021/12/16 09:13:20;;;;;;;28.40;16.27;;;;;;;2.07;79.19;100023.23;1772398;79;20973;-40
2021/12/16 09:15:52;;;;;;;30.45;17.02;;;;;;;2.12;79.12;100025.84;1781832;79;21978;-39
2021/12/16 09:18:22;;;;;;;29.05;16.73;;;;;;;2.21;78.94;100019.85;1788808;79;20991;-39
2021/12/16 09:20:49;;;;;;;32.48;19.30;;;;;;;2.25;78.88;100018.19;1788995;79;20949;-40
2021/12/16 09:23:16;;;;;;;29.95;16.62;;;;;;;2.24;78.82;100011.23;1788899;80;21004;-39
2021/12/16 09:25:45;;;;;;;28.47;17.20;;;;;;;2.23;78.87;100002.98;1789173;80;21060;-40
2021/12/16 09:28:11;;;;;;;27.22;16.75;;;;;;;2.24;78.97;100003.21;1788855;80;21106;-40
2021/12/16 09:30:39;;;;;;;32.73;18.48;;;;;;;2.31;78.80;100006.34;1788924;80;21534;-39
2021/12/16 09:33:12;;;;;;;32.23;19.77;;;;;;;2.34;78.79;99994.51;1788906;79;20941;-39
2021/12/16 09:35:41;;;;;;;32.88;19.77;;;;;;;2.31;78.79;99984.94;1788690;79;21068;-40
2021/12/16 09:38:07;;;;;;;31.93;17.80;;;;;;;2.28;78.94;99986.83;1787847;79;21563;-39
2021/12/16 09:40:38;;;;;;;33.00;17.65;;;;;;;2.28;79.08;99970.78;1788925;80;21185;-39
2021/12/16 09:43:05;;;;;;;36.33;18.45;;;;;;;2.36;79.10;99975.50;1788762;79;20953;-39
2021/12/16 09:45:32;;;;;;;33.35;19.62;;;;;;;2.38;79.13;99978.66;1788824;79;21565;-39
2021/12/16 09:47:59;;;;;;;30.40;18.23;;;;;;;2.36;79.26;99976.30;1788931;80;21012;-39
2021/12/16 09:50:29;;;;;;;31.12;17.85;;;;;;;2.37;79.29;99974.42;1782671;80;21017;-40
2021/12/16 09:52:55;;;;;;;33.40;18.10;;;;;;;2.43;79.28;99969.22;1788998;80;21519;-40
2021/12/16 09:55:22;;;;;;;32.58;19.50;;;;;;;2.47;79.19;99969.69;1788667;80;20957;-39
2021/12/16 09:57:49;;;;;;;36.90;19.25;;;;;;;2.47;79.46;99970.26;1788904;80;20952;-40
2021/12/16 10:00:22;;;;;;;28.02;16.82;;;;;;;2.49;79.58;99957.37;1788746;79;21024;-40
2021/12/16 10:02:51;;;;;;;29.55;17.07;;;;;;;2.46;79.53;99957.95;1788874;80;21001;-39
2021/12/16 10:05:17;;;;;;;33.20;18.82;;;;;;;2.52;79.45;99950.08;1788819;80;22119;-40
2021/12/16 10:07:44;;;;;;;35.78;20.00;;;;;;;2.57;79.47;99945.98;1788942;80;20945;-39
2021/12/16 10:10:17;;;;;;;34.00;19.35;;;;;;;2.56;79.59;99941.75;1788715;80;20909;-40
2021/12/16 10:12:47;;;;;;;34.20;20.08;;;;;;;2.57;79.73;99937.95;1788814;79;21000;-40
2021/12/16 10:18:01;;;;;;;34.08;19.42;;;;;;;2.67;79.78;99928.97;1788721;79;21137;-39
2021/12/16 10:20:50;;;;;;;35.03;19.65;;;;;;;2.71;79.75;99935.34;1789008;80;20949;-40
2021/12/16 10:23:33;;;;;;;34.43;19.92;;;;;;;2.68;79.94;99930.02;1788920;79;20956;-40
2021/12/16 10:26:03;;;;;;;34.70;20.48;;;;;;;2.68;80.08;99919.31;1789054;80;21016;-40
2021/12/16 10:28:35;;;;;;;35.28;20.68;;;;;;;2.70;80.01;99913.14;1788278;79;21063;-40
2021/12/16 10:31:15;;;;;;;32.30;18.75;;;;;;;2.72;80.04;99912.28;1789139;79;21064;-39
2021/12/16 10:33:54;;;;;;;34.53;21.35;;;;;;;2.70;80.29;99909.13;1788881;80;21562;-40
2021/12/16 10:36:34;;;;;;;36.77;20.80;;;;;;;2.74;80.33;99902.09;1788952;78;20953;-39
2021/12/16 10:39:08;;;;;;;39.03;21.85;;;;;;;2.83;80.32;99904.33;1758059;81;21035;-39
2021/12/16 10:41:41;;;;;;;42.03;22.45;;;;;;;2.86;80.25;99899.72;1757969;81;21206;-40
2021/12/16 10:44:27;;;;;;;44.40;23.90;;;;;;;2.86;80.37;99902.39;1757519;81;21082;-40
2021/12/16 10:47:07;;;;;;;37.58;22.55;;;;;;;2.89;80.44;99902.36;1757608;81;21495;-40
2021/12/16 10:49:37;;;;;;;39.05;22.10;;;;;;;2.96;80.33;99902.75;1756940;81;20957;-40
2021/12/16 10:52:11;;;;;;;39.85;24.52;;;;;;;3.01;80.25;99891.95;1757648;81;21031;-40
2021/12/16 10:54:41;;;;;;;39.63;22.35;;;;;;;3.01;80.28;99887.94;1757857;81;20998;-40
2021/12/16 10:57:16;;;;;;;39.75;21.97;;;;;;;2.99;80.42;99884.23;1757944;81;21760;-40
2021/12/16 10:59:53;;;;;;;38.55;22.48;;;;;;;2.69;80.42;99832.57;1757545;81;21003;-40
2021/12/16 11:02:27;;;;;;;43.23;24.37;;;;;;;3.10;80.47;99884.05;1758068;81;21019;-40
2021/12/16 11:05:18;;;;;;;39.85;23.77;;;;;;;3.11;80.48;99872.22;1758173;81;21008;-39
2021/12/16 11:07:51;;;;;;;36.63;22.87;;;;;;;3.10;80.53;99876.77;1756961;81;21024;-39
2021/12/16 11:10:33;;;;;;;43.63;24.47;;;;;;;3.12;80.45;99874.61;1757954;81;21089;-40
2021/12/16 11:13:09;;;;;;;37.38;23.00;;;;;;;3.15;80.48;99869.98;1757933;81;20925;-40
2021/12/16 11:15:45;;;;;;;41.02;22.98;;;;;;;3.15;80.51;99865.20;1754155;81;21006;-40
2021/12/16 11:18:23;;;;;;;40.00;22.55;;;;;;;3.16;80.45;99862.20;1742115;82;21422;-40
2021/12/16 11:20:57;;;;;;;38.90;21.07;;;;;;;3.20;80.43;99861.05;1741887;82;21842;-39
2021/12/16 11:23:34;;;;;;;39.70;22.75;;;;;;;3.24;80.33;99858.84;1741827;81;21146;-40
2021/12/16 11:26:17;;;;;;;37.93;21.87;;;;;;;3.21;80.42;99859.97;1741701;82;21015;-39
2021/12/16 11:28:50;;;;;;;40.10;23.22;;;;;;;3.19;80.50;99856.27;1741574;81;21001;-40
2021/12/16 11:31:30;;;;;;;39.48;23.42;;;;;;;3.23;80.48;99853.77;1741844;81;21025;-40
2021/12/16 11:34:01;;;;;;;39.53;22.87;;;;;;;3.28;80.49;99846.97;1742106;81;21568;-40
2021/12/16 11:36:35;;;;;;;40.10;23.35;;;;;;;3.26;80.55;99840.56;1742874;81;21158;-40
2021/12/16 11:39:14;;;;;;;42.40;22.73;;;;;;;3.27;80.59;99847.52;1772417;79;21614;-40
2021/12/16 11:41:46;;;;;;;38.02;22.58;;;;;;;3.32;80.51;99844.73;1772733;81;20998;-40
2021/12/16 11:44:29;;;;;;;40.35;23.25;;;;;;;3.38;80.40;99843.55;1772687;79;21808;-40
2021/12/16 11:47:05;;;;;;;39.03;22.45;;;;;;;3.39;80.43;99839.75;1772409;81;21489;-40
2021/12/16 11:49:38;;;;;;;38.70;22.80;;;;;;;3.37;80.42;99835.25;1772729;81;21145;-40
2021/12/16 11:52:22;;;;;;;41.10;23.18;;;;;;;3.40;80.37;99832.50;1772379;81;21069;-40
2021/12/16 11:55:00;;;;;;;41.15;23.38;;;;;;;3.42;80.37;99829.78;1772349;79;21005;-40
2021/12/16 11:57:50;;;;;;;42.93;23.47;;;;;;;3.43;80.34;99823.34;1772364;81;20971;-40
2021/12/16 12:00:28;;;;;;;42.53;22.95;;;;;;;3.41;80.45;99822.04;1772501;81;25844;-40
2021/12/16 12:02:57;;;;;;;43.63;23.45;;;;;;;3.39;80.69;99820.19;1771880;80;21809;-39
2021/12/16 12:05:42;;;;;;;41.37;22.85;;;;;;;3.44;80.57;99816.06;1772470;81;20953;-40
2021/12/16 12:08:23;;;;;;;44.90;24.85;;;;;;;3.43;80.68;99812.63;1772201;81;20910;-41
2021/12/16 12:11:06;;;;;;;40.67;22.70;;;;;;;3.39;80.84;99809.47;1772724;79;20918;-41
2021/12/16 12:13:44;;;;;;;44.23;24.18;;;;;;;3.38;80.94;99809.25;1772349;79;21013;-41
2021/12/16 12:16:14;;;;;;;42.05;24.30;;;;;;;3.46;80.87;99803.97;1778042;79;21779;-42
2021/12/16 12:19:12;;;;;;;44.73;23.40;;;;;;;3.50;80.95;99802.81;1788996;80;21507;-41
2021/12/16 12:21:56;;;;;;;46.45;24.95;;;;;;;3.52;80.92;99802.52;1789197;80;21027;-41
2021/12/16 12:24:37;;;;;;;45.73;24.65;;;;;;;3.51;80.96;99800.38;1788224;79;20974;-41
2021/12/16 12:27:17;;;;;;;48.90;25.10;;;;;;;3.58;80.74;99797.30;1789306;79;21511;-41
2021/12/16 12:29:59;;;;;;;49.10;25.52;;;;;;;3.62;80.73;99792.91;1789099;79;21541;-41
2021/12/16 12:32:38;;;;;;;45.00;24.70;;;;;;;3.62;80.86;99791.02;1789290;80;20965;-41
2021/12/16 12:35:13;;;;;;;34.45;18.35;;;;;;;3.68;80.64;99785.00;1788992;80;21004;-42
2021/12/16 12:37:44;;;;;;;44.25;23.85;;;;;;;3.72;80.64;99782.75;1789177;80;20949;-41
2021/12/16 12:40:36;;;;;;;42.53;23.60;;;;;;;3.74;80.38;99781.88;1788710;79;21024;-41
2021/12/16 12:43:04;;;;;;;47.17;24.98;;;;;;;3.74;80.44;99777.86;1788777;79;21095;-41
2021/12/16 12:45:36;;;;;;;45.70;24.43;;;;;;;3.73;80.40;99776.81;1789032;80;20968;-41
2021/12/16 12:48:06;;;;;;;43.28;23.22;;;;;;;3.77;80.27;99785.32;1789231;80;20991;-41
2021/12/16 12:50:38;;;;;;;46.30;24.72;;;;;;;3.82;80.02;99782.52;1789155;79;21549;-41
2021/12/16 12:53:22;;;;;;;46.85;24.82;;;;;;;3.79;80.09;99775.61;1789247;80;21021;-42
2021/12/16 12:55:50;;;;;;;40.52;23.35;;;;;;;3.75;80.20;99771.41;1788919;80;21134;-41
2021/12/16 12:58:23;;;;;;;43.70;23.42;;;;;;;3.76;80.27;99769.52;1788883;79;20961;-41
2021/12/16 13:00:59;;;;;;;41.33;23.83;;;;;;;3.81;80.14;99774.22;1788881;80;20999;-42
2021/12/16 13:03:38;;;;;;;43.15;23.70;;;;;;;3.78;80.10;99772.13;1789185;79;21017;-41
2021/12/16 13:06:14;;;;;;;43.25;23.77;;;;;;;3.75;80.29;99772.75;1788868;80;21562;-41
2021/12/16 13:08:47;;;;;;;36.77;20.97;;;;;;;3.77;80.37;99778.61;1789167;79;20964;-41
2021/12/16 13:11:22;;;;;;;44.23;23.77;;;;;;;3.83;80.19;99776.03;1788830;80;21004;-42
2021/12/16 13:14:35;;;;;;;46.83;24.98;;;;;;;3.84;80.02;99774.94;1788704;79;20992;-41
2021/12/16 13:16:54;;;;;;;38.45;22.70;;;;;;;3.79;80.10;99780.97;1773320;80;21473;-41
2021/12/16 13:31:37;;;;;;;42.23;24.05;;;;;;;3.75;80.37;99774.09;1788842;79;21007;-41
2021/12/16 13:34:02;;;;;;;44.48;24.07;;;;;;;3.77;80.35;99771.11;1788570;79;21021;-41
2021/12/16 13:36:44;;;;;;;42.93;23.95;;;;;;;3.73;80.48;99769.56;1769177;80;21143;-41
2021/12/16 13:39:15;;;;;;;42.58;22.48;;;;;;;3.73;80.55;99761.52;1788866;80;20964;-41
2021/12/16 13:42:03;;;;;;;38.63;23.25;;;;;;;3.77;80.53;99767.89;1785436;78;20972;-41
2021/12/16 13:44:57;;;;;;;44.00;24.35;;;;;;;3.79;80.46;99764.34;1788681;79;21747;-41
2021/12/16 14:02:37;;;;;;;34.65;19.85;;;;;;;3.76;80.94;99764.16;1788805;80;21002;-41
2021/12/16 14:05:21;;;;;;;35.05;20.27;;;;;;;3.79;80.84;99764.34;1787564;79;21136;-41
2021/12/16 14:08:01;;;;;;;34.35;20.92;;;;;;;3.84;80.80;99759.39;1788789;79;21000;-41
2021/12/16 14:10:49;;;;;;;30.50;17.60;;;;;;;3.82;80.91;99763.75;1788841;80;21011;-41
2021/12/16 14:17:08;;;;;;;26.57;16.42;;;;;;;3.92;80.56;99771.52;1786793;80;22722;-41
2021/12/16 14:25:23;;;;;;;26.82;15.98;;;;;;;3.89;80.59;99772.14;1772263;81;21575;-41
2021/12/16 14:42:46;;;;;;;23.87;15.25;;;;;;;4.05;80.48;99758.36;1772412;81;21049;-41
2021/12/16 14:50:30;;;;;;;24.05;15.35;;;;;;;4.11;80.35;99747.75;1772286;81;21535;-41
2021/12/16 14:52:57;;;;;;;26.02;16.77;;;;;;;4.14;80.39;99759.20;1772469;81;21006;-41
2021/12/16 14:55:25;;;;;;;23.02;14.38;;;;;;;4.14;80.41;99754.63;1772372;81;21053;-41
2021/12/16 14:57:55;;;;;;;23.77;15.13;;;;;;;4.15;80.24;99759.45;1772551;81;20998;-41